• Join FlightAware (Why Join?)
  • Login
  • US Flag 
02:10AM EDT


 

Airport Tracker/Info


-or-


 

Live Flight TrackerFlight Track Log ✈ ASQ5740 ✈ 23-Nov-2013 ✈ KIAD - KGSP

Flight Track Log - Related Links

Times and Time Zones

All times are in EST time to prevent confusion due to time zone crossing. See the ASQ5740 flight status page for this flight to view local times or setup timezone preferences in your user account.

Time Position Orientation Groundspeed Altitude Reporting Facility
EST Latitude Longitude Course Direction KTS MPH feet Rate Location/Type
01:36PM 38.9167 -77.5333 226° Southwest 206 237 2,200  Level Potomac TRACON
01:37PM 38.8833 -77.6000 237° Southwest 246 283 5,700 2,400 Climbing Potomac TRACON
01:38PM 38.8167 -77.6000 180° South 283 326 7,000 1,740 Climbing Potomac TRACON
01:39PM 38.6825 -77.7946 224° Southwest  Level Estimated
01:40PM 38.6161 -77.8779 238° Southwest  Level Estimated
01:41PM 38.5496 -77.9611 238° Southwest  Level Estimated
01:41PM 38.6519 -77.6439 192° South 275 316 11,200  Level Washington Center
01:42PM 38.4831 -78.0440 226° Southwest  Level Estimated
01:42PM 38.5736 -77.7081 213° Southwest 299 344 13,200  Level Washington Center
01:43PM 38.4956 -77.7694 212° Southwest 326 375 15,400 1,980 Climbing Washington Center
01:44PM 38.4150 -77.8361 213° Southwest 331 381 17,100 1,560 Climbing Washington Center
01:45PM 38.3344 -77.9000 212° Southwest 341 392 18,600 1,560 Climbing Washington Center
01:46PM 38.2542 -77.9636 212° Southwest 341 392 20,300 1,380 Climbing Washington Center
01:47PM 38.1800 -78.0244 213° Southwest 341 392 21,400 1,020 Climbing Washington Center
01:48PM 38.1036 -78.0853 212° Southwest 335 386 22,400 900 Climbing Washington Center
01:49PM 38.0231 -78.1461 211° Southwest 335 386 23,300 900 Climbing Washington Center
01:50PM 37.9669 -78.2283 229° Southwest 321 369 24,200 780 Climbing Washington Center
01:51PM 37.9047 -78.3156 228° Southwest 327 376 24,900 600 Climbing Washington Center
01:52PM 37.8422 -78.4028 228° Southwest 333 383 25,500 600 Climbing Washington Center
01:53PM 37.7731 -78.5028 229° Southwest 341 392 26,200 600 Climbing Washington Center
01:54PM 37.7081 -78.5975 229° Southwest 348 400 26,800 600 Climbing Washington Center
01:55PM 37.6453 -78.6919 230° Southwest 348 400 27,400 600 Climbing Washington Center
01:56PM 37.5800 -78.7889 230° Southwest 355 409 28,000 240 Climbing Washington Center
01:57PM 37.5150 -78.8831 229° Southwest 355 409 28,000  Level Washington Center
01:58PM 37.4519 -78.9744 229° Southwest 376 433 28,000  Level Washington Center
01:59PM 37.3800 -79.0783 229° Southwest 376 433 28,000  Level Washington Center
02:00PM 37.3103 -79.1797 229° Southwest 381 438 28,000  Level Washington Center
02:01PM 37.2383 -79.2806 228° Southwest 386 444 28,000  Level Washington Center
02:02PM 37.1683 -79.3842 230° Southwest 393 452 28,000  Level Washington Center
02:03PM 37.0964 -79.4875 229° Southwest 393 452 28,000  Level Washington Center
02:04PM 36.9708 -79.6664 229° Southwest 409 471 28,000  Level Atlanta Center
02:05PM 36.9056 -79.7608 229° Southwest 404 465 28,000  Level Atlanta Center
02:06PM 36.8339 -79.8608 228° Southwest 399 459 28,000  Level Atlanta Center
02:07PM 36.7642 -79.9603 229° Southwest 394 453 28,000  Level Atlanta Center
02:08PM 36.6944 -80.0622 230° Southwest 394 453 28,000  Level Atlanta Center
02:09PM 36.6208 -80.1667 229° Southwest 394 453 28,000 -120 Level Atlanta Center
02:10PM 36.5428 -80.2739 228° Southwest 394 453 27,800 -480 Descending Atlanta Center
02:11PM 36.4294 -80.3231 199° South 401 461 27,100 -720 Descending Atlanta Center
02:12PM 36.3097 -80.3594 194° South 421 484 26,400 -660 Descending Atlanta Center
02:13PM 36.1900 -80.4036 197° South 436 502 25,800 -660 Descending Atlanta Center
02:14PM 36.0806 -80.4392 195° South 448 516 25,100 -720 Descending Atlanta Center
02:15PM 35.9608 -80.4781 195° South 448 516 24,400 -1,320 Descending Atlanta Center
02:16PM 35.8372 -80.5347 200° South 448 516 22,500 -1,500 Descending Atlanta Center
02:17PM 35.7692 -80.6347 230° Southwest 404 465 21,500 -1,020 Descending Atlanta Center
02:18PM 35.7031 -80.7397 232° Southwest 392 451 20,500 -840 Descending Atlanta Center
02:19PM 35.6450 -80.8317 232° Southwest 380 437 20,000 -720 Descending Atlanta Center
02:19PM 35.6369 -80.8397 219° Southwest 387 445 19,800 -1,800 Descending Atlanta Center
02:19PM 35.6189 -80.8683 232° Southwest 378 435 19,300 -2,040 Descending Atlanta Center
02:20PM 35.5706 -80.9392 230° Southwest 387 445 17,800 -1,980 Descending Atlanta Center
02:20PM 35.5547 -80.9706 238° Southwest 370 426 17,300 -2,040 Descending Atlanta Center
02:21PM 35.5083 -81.0333 228° Southwest 376 433 15,800 -2,100 Descending Atlanta Center
02:22PM 35.4842 -81.0750 235° Southwest 353 406 15,000 -1,800 Descending Atlanta Center
02:22PM 35.4522 -81.1350 237° Southwest 371 427 14,000 -1,500 Descending Atlanta Center
02:23PM 35.4325 -81.1789 241° Southwest 359 413 13,500 -1,020 Descending Atlanta Center
02:23PM 35.3964 -81.2389 234° Southwest 371 427 13,000 -540 Descending Atlanta Center
02:24PM 35.3786 -81.2800 242° Southwest 358 412 13,000  Level Atlanta Center
02:24PM 35.3503 -81.3294 235° Southwest 366 421 13,000 -240 Level Atlanta Center
02:25PM 35.3203 -81.3889 238° Southwest 358 412 12,800 -720 Descending Atlanta Center
02:25PM 35.2942 -81.4331 234° Southwest 366 421 12,300 -1,260 Descending Atlanta Center
02:26PM 35.2419 -81.5339 238° Southwest 360 414 10,900 -1,200 Descending Atlanta Center
02:27PM 35.1897 -81.6319 237° Southwest 355 409 10,000 -480 Descending Atlanta Center
02:28PM 35.1225 -81.7178 226° Southwest 355 409 10,000 -60 Level Atlanta Center
02:29PM 35.0531 -81.8008 224° Southwest 355 409 9,900 -300 Descending Atlanta Center
02:30PM 34.9939 -81.8683 223° Southwest 333 383 9,400 -1,320 Descending Atlanta Center
02:31PM 34.9428 -81.9306 225° Southwest 289 333 7,300 -1,740 Descending Atlanta Center
02:32PM 34.8875 -81.9928 223° Southwest 262 302 6,000 -1,680 Descending Atlanta Center
02:33PM 34.8383 -82.0547 226° Southwest 257 296 4,000 -1,800 Descending Atlanta Center
02:34PM 34.7894 -82.1192 227° Southwest 257 296 2,500 -780 Descending Atlanta Center
02:35PM 34.7903 -82.1872 271° West 200 230 2,500 -180 Level Atlanta Center
02:36PM 34.8161 -82.2350 303° West 174 200 2,200 -180 Descending Atlanta Center
02:37PM 34.8150 -82.2906 269° West 174 200 2,200  Level Atlanta Center